sensor_id;sensor_type;location;lat;lon;timestamp;P1;durP1;ratioP1;P2;durP2;ratioP2
3757;SDS011;1894;51.038;13.692;2024-01-27T00:00:50;8.70;;;1.20;;
3757;SDS011;1894;51.038;13.692;2024-01-27T00:03:18;5.50;;;1.20;;
3757;SDS011;1894;51.038;13.692;2024-01-27T00:05:45;13.07;;;1.13;;
3757;SDS011;1894;51.038;13.692;2024-01-27T00:08:12;5.93;;;1.10;;
3757;SDS011;1894;51.038;13.692;2024-01-27T00:10:39;3.23;;;0.90;;
3757;SDS011;1894;51.038;13.692;2024-01-27T00:13:06;7.60;;;1.27;;
3757;SDS011;1894;51.038;13.692;2024-01-27T00:15:33;4.33;;;1.13;;
3757;SDS011;1894;51.038;13.692;2024-01-27T00:18:00;3.13;;;1.00;;
3757;SDS011;1894;51.038;13.692;2024-01-27T00:20:28;6.37;;;2.80;;
3757;SDS011;1894;51.038;13.692;2024-01-27T00:22:55;6.20;;;1.60;;
3757;SDS011;1894;51.038;13.692;2024-01-27T00:25:22;2.50;;;0.90;;
3757;SDS011;1894;51.038;13.692;2024-01-27T00:27:49;4.80;;;1.10;;
3757;SDS011;1894;51.038;13.692;2024-01-27T00:30:17;12.07;;;1.17;;
3757;SDS011;1894;51.038;13.692;2024-01-27T00:32:44;3.27;;;0.93;;
3757;SDS011;1894;51.038;13.692;2024-01-27T00:35:12;6.23;;;1.00;;
3757;SDS011;1894;51.038;13.692;2024-01-27T00:37:41;8.70;;;1.50;;
3757;SDS011;1894;51.038;13.692;2024-01-27T00:40:08;9.93;;;1.30;;
3757;SDS011;1894;51.038;13.692;2024-01-27T00:42:37;4.47;;;1.00;;
3757;SDS011;1894;51.038;13.692;2024-01-27T00:45:04;6.50;;;1.37;;
3757;SDS011;1894;51.038;13.692;2024-01-27T00:47:32;6.60;;;1.13;;
3757;SDS011;1894;51.038;13.692;2024-01-27T00:49:59;10.07;;;1.40;;
3757;SDS011;1894;51.038;13.692;2024-01-27T00:52:26;1.97;;;1.27;;
3757;SDS011;1894;51.038;13.692;2024-01-27T00:54:53;7.23;;;1.50;;
3757;SDS011;1894;51.038;13.692;2024-01-27T00:57:21;4.80;;;0.97;;
3757;SDS011;1894;51.038;13.692;2024-01-27T00:59:48;7.47;;;2.90;;
3757;SDS011;1894;51.038;13.692;2024-01-27T01:02:15;7.93;;;1.43;;
3757;SDS011;1894;51.038;13.692;2024-01-27T01:04:42;2.67;;;0.90;;
3757;SDS011;1894;51.038;13.692;2024-01-27T01:07:09;10.27;;;1.10;;
3757;SDS011;1894;51.038;13.692;2024-01-27T01:09:36;7.03;;;1.33;;
3757;SDS011;1894;51.038;13.692;2024-01-27T01:12:04;9.30;;;1.67;;
3757;SDS011;1894;51.038;13.692;2024-01-27T01:14:31;2.93;;;0.90;;
3757;SDS011;1894;51.038;13.692;2024-01-27T01:16:58;7.00;;;1.00;;
3757;SDS011;1894;51.038;13.692;2024-01-27T01:19:26;5.07;;;1.30;;
3757;SDS011;1894;51.038;13.692;2024-01-27T01:21:53;8.67;;;1.20;;
3757;SDS011;1894;51.038;13.692;2024-01-27T01:24:20;5.13;;;1.20;;
3757;SDS011;1894;51.038;13.692;2024-01-27T01:26:47;7.20;;;1.30;;
3757;SDS011;1894;51.038;13.692;2024-01-27T01:29:15;6.67;;;1.33;;
3757;SDS011;1894;51.038;13.692;2024-01-27T01:31:42;5.57;;;1.13;;
3757;SDS011;1894;51.038;13.692;2024-01-27T01:34:10;6.20;;;1.00;;
3757;SDS011;1894;51.038;13.692;2024-01-27T01:36:37;10.20;;;1.90;;
3757;SDS011;1894;51.038;13.692;2024-01-27T01:39:04;15.63;;;1.30;;
3757;SDS011;1894;51.038;13.692;2024-01-27T01:41:33;6.87;;;1.20;;
3757;SDS011;1894;51.038;13.692;2024-01-27T01:44:00;9.87;;;1.60;;
3757;SDS011;1894;51.038;13.692;2024-01-27T01:46:27;6.13;;;1.07;;
3757;SDS011;1894;51.038;13.692;2024-01-27T01:48:54;2.13;;;0.90;;
3757;SDS011;1894;51.038;13.692;2024-01-27T01:51:22;9.60;;;1.50;;
3757;SDS011;1894;51.038;13.692;2024-01-27T01:53:50;6.10;;;1.37;;
3757;SDS011;1894;51.038;13.692;2024-01-27T01:56:18;8.37;;;1.60;;
3757;SDS011;1894;51.038;13.692;2024-01-27T01:58:45;9.93;;;1.70;;
3757;SDS011;1894;51.038;13.692;2024-01-27T02:01:12;8.97;;;1.00;;
3757;SDS011;1894;51.038;13.692;2024-01-27T02:03:39;8.87;;;1.23;;
3757;SDS011;1894;51.038;13.692;2024-01-27T02:06:06;4.27;;;1.03;;
3757;SDS011;1894;51.038;13.692;2024-01-27T02:08:34;12.90;;;1.67;;
3757;SDS011;1894;51.038;13.692;2024-01-27T02:11:01;9.60;;;1.13;;
3757;SDS011;1894;51.038;13.692;2024-01-27T02:13:29;10.10;;;1.90;;
3757;SDS011;1894;51.038;13.692;2024-01-27T02:15:56;9.10;;;1.87;;
3757;SDS011;1894;51.038;13.692;2024-01-27T02:18:23;9.63;;;1.30;;
3757;SDS011;1894;51.038;13.692;2024-01-27T02:20:51;8.37;;;1.40;;
3757;SDS011;1894;51.038;13.692;2024-01-27T02:23:18;10.80;;;1.77;;
3757;SDS011;1894;51.038;13.692;2024-01-27T02:25:45;5.27;;;1.00;;
3757;SDS011;1894;51.038;13.692;2024-01-27T02:28:12;12.07;;;1.50;;
3757;SDS011;1894;51.038;13.692;2024-01-27T02:30:39;17.63;;;2.27;;
3757;SDS011;1894;51.038;13.692;2024-01-27T02:33:06;9.80;;;1.57;;
3757;SDS011;1894;51.038;13.692;2024-01-27T02:35:34;5.20;;;1.63;;
3757;SDS011;1894;51.038;13.692;2024-01-27T02:38:01;9.27;;;1.63;;
3757;SDS011;1894;51.038;13.692;2024-01-27T02:40:28;8.47;;;1.50;;
3757;SDS011;1894;51.038;13.692;2024-01-27T02:42:55;6.63;;;1.73;;
3757;SDS011;1894;51.038;13.692;2024-01-27T02:45:22;9.20;;;2.00;;
3757;SDS011;1894;51.038;13.692;2024-01-27T02:47:49;9.37;;;1.43;;
3757;SDS011;1894;51.038;13.692;2024-01-27T02:50:17;6.60;;;1.80;;
3757;SDS011;1894;51.038;13.692;2024-01-27T02:52:45;5.13;;;1.07;;
3757;SDS011;1894;51.038;13.692;2024-01-27T02:55:12;9.83;;;1.93;;
3757;SDS011;1894;51.038;13.692;2024-01-27T02:57:42;7.90;;;1.50;;
3757;SDS011;1894;51.038;13.692;2024-01-27T03:00:10;10.00;;;1.93;;
3757;SDS011;1894;51.038;13.692;2024-01-27T03:02:37;8.00;;;1.97;;
3757;SDS011;1894;51.038;13.692;2024-01-27T03:05:04;8.73;;;1.47;;
3757;SDS011;1894;51.038;13.692;2024-01-27T03:07:32;8.20;;;1.57;;
3757;SDS011;1894;51.038;13.692;2024-01-27T03:09:59;5.10;;;1.53;;
3757;SDS011;1894;51.038;13.692;2024-01-27T03:12:26;11.50;;;1.77;;
3757;SDS011;1894;51.038;13.692;2024-01-27T03:14:53;7.63;;;2.27;;
3757;SDS011;1894;51.038;13.692;2024-01-27T03:17:21;10.30;;;2.07;;
3757;SDS011;1894;51.038;13.692;2024-01-27T03:19:48;7.50;;;1.20;;
3757;SDS011;1894;51.038;13.692;2024-01-27T03:22:15;6.40;;;1.50;;
3757;SDS011;1894;51.038;13.692;2024-01-27T03:24:42;16.30;;;1.87;;
3757;SDS011;1894;51.038;13.692;2024-01-27T03:27:09;7.27;;;1.87;;
3757;SDS011;1894;51.038;13.692;2024-01-27T03:29:36;9.03;;;1.33;;
3757;SDS011;1894;51.038;13.692;2024-01-27T03:32:04;4.63;;;1.67;;
3757;SDS011;1894;51.038;13.692;2024-01-27T03:34:32;13.43;;;1.70;;
3757;SDS011;1894;51.038;13.692;2024-01-27T03:36:59;11.50;;;2.00;;
3757;SDS011;1894;51.038;13.692;2024-01-27T03:39:26;7.93;;;1.80;;
3757;SDS011;1894;51.038;13.692;2024-01-27T03:41:53;17.03;;;2.37;;
3757;SDS011;1894;51.038;13.692;2024-01-27T03:44:20;10.50;;;2.03;;
3757;SDS011;1894;51.038;13.692;2024-01-27T03:46:48;5.40;;;1.20;;
3757;SDS011;1894;51.038;13.692;2024-01-27T03:49:15;10.13;;;2.03;;
3757;SDS011;1894;51.038;13.692;2024-01-27T03:51:42;18.23;;;2.43;;
3757;SDS011;1894;51.038;13.692;2024-01-27T03:54:09;4.10;;;1.23;;
3757;SDS011;1894;51.038;13.692;2024-01-27T03:56:36;12.97;;;1.87;;
3757;SDS011;1894;51.038;13.692;2024-01-27T03:59:03;13.40;;;2.00;;
3757;SDS011;1894;51.038;13.692;2024-01-27T04:01:32;8.30;;;2.57;;
3757;SDS011;1894;51.038;13.692;2024-01-27T04:03:59;11.03;;;1.20;;
3757;SDS011;1894;51.038;13.692;2024-01-27T04:06:27;12.40;;;1.93;;
3757;SDS011;1894;51.038;13.692;2024-01-27T04:08:54;6.70;;;1.63;;
3757;SDS011;1894;51.038;13.692;2024-01-27T04:11:21;12.90;;;2.77;;
3757;SDS011;1894;51.038;13.692;2024-01-27T04:13:49;9.90;;;2.60;;
3757;SDS011;1894;51.038;13.692;2024-01-27T04:16:17;11.77;;;1.87;;
3757;SDS011;1894;51.038;13.692;2024-01-27T04:18:44;12.60;;;1.90;;
3757;SDS011;1894;51.038;13.692;2024-01-27T04:21:12;13.70;;;1.50;;
3757;SDS011;1894;51.038;13.692;2024-01-27T04:23:40;11.50;;;1.90;;
3757;SDS011;1894;51.038;13.692;2024-01-27T04:26:07;9.20;;;1.73;;
3757;SDS011;1894;51.038;13.692;2024-01-27T04:28:35;6.87;;;1.40;;
3757;SDS011;1894;51.038;13.692;2024-01-27T04:31:03;10.63;;;1.60;;
3757;SDS011;1894;51.038;13.692;2024-01-27T04:33:30;10.67;;;1.57;;
3757;SDS011;1894;51.038;13.692;2024-01-27T04:35:58;5.77;;;1.33;;
3757;SDS011;1894;51.038;13.692;2024-01-27T04:38:25;7.53;;;1.67;;
3757;SDS011;1894;51.038;13.692;2024-01-27T04:40:52;10.70;;;1.70;;
3757;SDS011;1894;51.038;13.692;2024-01-27T04:43:19;14.03;;;1.90;;
3757;SDS011;1894;51.038;13.692;2024-01-27T04:45:47;10.60;;;1.43;;
3757;SDS011;1894;51.038;13.692;2024-01-27T04:48:15;11.97;;;1.80;;
3757;SDS011;1894;51.038;13.692;2024-01-27T04:50:43;11.03;;;1.50;;
3757;SDS011;1894;51.038;13.692;2024-01-27T04:53:10;4.10;;;1.27;;
3757;SDS011;1894;51.038;13.692;2024-01-27T04:55:37;4.63;;;1.27;;
3757;SDS011;1894;51.038;13.692;2024-01-27T04:58:06;11.07;;;2.27;;
3757;SDS011;1894;51.038;13.692;2024-01-27T05:00:33;7.10;;;1.90;;
3757;SDS011;1894;51.038;13.692;2024-01-27T05:03:01;15.07;;;2.73;;
3757;SDS011;1894;51.038;13.692;2024-01-27T05:05:31;11.00;;;2.30;;
3757;SDS011;1894;51.038;13.692;2024-01-27T05:08:02;13.37;;;1.80;;
3757;SDS011;1894;51.038;13.692;2024-01-27T05:10:30;8.73;;;1.17;;
3757;SDS011;1894;51.038;13.692;2024-01-27T05:12:57;10.70;;;1.37;;
3757;SDS011;1894;51.038;13.692;2024-01-27T05:15:24;10.33;;;2.07;;
3757;SDS011;1894;51.038;13.692;2024-01-27T05:17:51;6.80;;;1.50;;
3757;SDS011;1894;51.038;13.692;2024-01-27T05:20:19;12.43;;;2.53;;
3757;SDS011;1894;51.038;13.692;2024-01-27T05:22:46;9.83;;;1.50;;
3757;SDS011;1894;51.038;13.692;2024-01-27T05:25:13;12.47;;;1.60;;
3757;SDS011;1894;51.038;13.692;2024-01-27T05:27:40;10.10;;;1.80;;
3757;SDS011;1894;51.038;13.692;2024-01-27T05:30:07;8.80;;;1.60;;
3757;SDS011;1894;51.038;13.692;2024-01-27T05:32:35;10.50;;;2.80;;
3757;SDS011;1894;51.038;13.692;2024-01-27T05:35:02;10.07;;;1.73;;
3757;SDS011;1894;51.038;13.692;2024-01-27T05:37:31;20.30;;;3.63;;
3757;SDS011;1894;51.038;13.692;2024-01-27T05:39:58;9.13;;;1.80;;
3757;SDS011;1894;51.038;13.692;2024-01-27T05:42:25;13.43;;;1.80;;
3757;SDS011;1894;51.038;13.692;2024-01-27T05:44:53;7.90;;;1.27;;
3757;SDS011;1894;51.038;13.692;2024-01-27T05:47:20;14.13;;;2.30;;
3757;SDS011;1894;51.038;13.692;2024-01-27T05:49:47;6.67;;;1.60;;
3757;SDS011;1894;51.038;13.692;2024-01-27T05:52:15;13.77;;;1.93;;
3757;SDS011;1894;51.038;13.692;2024-01-27T05:54:51;7.93;;;1.73;;
3757;SDS011;1894;51.038;13.692;2024-01-27T05:57:19;8.07;;;1.67;;
3757;SDS011;1894;51.038;13.692;2024-01-27T05:59:47;9.93;;;1.93;;
3757;SDS011;1894;51.038;13.692;2024-01-27T06:02:14;10.40;;;1.20;;
3757;SDS011;1894;51.038;13.692;2024-01-27T06:04:44;11.30;;;1.90;;
3757;SDS011;1894;51.038;13.692;2024-01-27T06:07:11;10.20;;;1.63;;
3757;SDS011;1894;51.038;13.692;2024-01-27T06:09:39;15.07;;;2.60;;
3757;SDS011;1894;51.038;13.692;2024-01-27T06:12:06;12.13;;;1.67;;
3757;SDS011;1894;51.038;13.692;2024-01-27T06:14:33;9.57;;;1.50;;
3757;SDS011;1894;51.038;13.692;2024-01-27T06:17:01;8.90;;;1.87;;
3757;SDS011;1894;51.038;13.692;2024-01-27T06:19:31;16.67;;;3.40;;
3757;SDS011;1894;51.038;13.692;2024-01-27T06:21:59;11.07;;;1.63;;
3757;SDS011;1894;51.038;13.692;2024-01-27T06:24:30;11.77;;;1.97;;
3757;SDS011;1894;51.038;13.692;2024-01-27T06:26:58;6.37;;;1.43;;
3757;SDS011;1894;51.038;13.692;2024-01-27T06:29:25;26.93;;;3.63;;
3757;SDS011;1894;51.038;13.692;2024-01-27T06:31:53;6.43;;;1.60;;
3757;SDS011;1894;51.038;13.692;2024-01-27T06:34:20;8.23;;;1.60;;
3757;SDS011;1894;51.038;13.692;2024-01-27T06:36:48;12.53;;;2.03;;
3757;SDS011;1894;51.038;13.692;2024-01-27T06:39:15;11.63;;;2.43;;
3757;SDS011;1894;51.038;13.692;2024-01-27T06:41:42;12.00;;;2.03;;
3757;SDS011;1894;51.038;13.692;2024-01-27T06:44:09;11.57;;;2.23;;
3757;SDS011;1894;51.038;13.692;2024-01-27T06:46:36;10.13;;;1.80;;
3757;SDS011;1894;51.038;13.692;2024-01-27T06:49:03;12.27;;;2.83;;
3757;SDS011;1894;51.038;13.692;2024-01-27T06:51:30;10.60;;;1.60;;
3757;SDS011;1894;51.038;13.692;2024-01-27T06:53:58;8.00;;;1.93;;
3757;SDS011;1894;51.038;13.692;2024-01-27T06:56:25;9.53;;;3.20;;
3757;SDS011;1894;51.038;13.692;2024-01-27T06:58:52;20.63;;;6.37;;
3757;SDS011;1894;51.038;13.692;2024-01-27T07:01:19;13.27;;;1.93;;
3757;SDS011;1894;51.038;13.692;2024-01-27T07:03:47;12.53;;;2.70;;
3757;SDS011;1894;51.038;13.692;2024-01-27T07:06:14;9.17;;;2.30;;
3757;SDS011;1894;51.038;13.692;2024-01-27T07:08:41;16.67;;;2.27;;
3757;SDS011;1894;51.038;13.692;2024-01-27T07:11:08;19.13;;;2.23;;
3757;SDS011;1894;51.038;13.692;2024-01-27T07:13:36;11.50;;;1.97;;
3757;SDS011;1894;51.038;13.692;2024-01-27T07:16:03;22.80;;;3.83;;
3757;SDS011;1894;51.038;13.692;2024-01-27T07:18:31;8.90;;;2.43;;
3757;SDS011;1894;51.038;13.692;2024-01-27T07:20:58;10.83;;;2.00;;
3757;SDS011;1894;51.038;13.692;2024-01-27T07:23:27;8.57;;;1.87;;
3757;SDS011;1894;51.038;13.692;2024-01-27T07:25:55;13.13;;;1.97;;
3757;SDS011;1894;51.038;13.692;2024-01-27T07:28:22;4.77;;;1.50;;
3757;SDS011;1894;51.038;13.692;2024-01-27T07:30:49;13.80;;;3.03;;
3757;SDS011;1894;51.038;13.692;2024-01-27T07:33:16;10.73;;;2.43;;
3757;SDS011;1894;51.038;13.692;2024-01-27T07:35:43;11.37;;;2.10;;
3757;SDS011;1894;51.038;13.692;2024-01-27T07:38:10;12.63;;;2.47;;
3757;SDS011;1894;51.038;13.692;2024-01-27T07:40:37;14.10;;;2.50;;
3757;SDS011;1894;51.038;13.692;2024-01-27T07:43:04;8.87;;;2.17;;
3757;SDS011;1894;51.038;13.692;2024-01-27T07:45:32;13.53;;;2.03;;
3757;SDS011;1894;51.038;13.692;2024-01-27T07:47:59;14.43;;;2.20;;
3757;SDS011;1894;51.038;13.692;2024-01-27T07:50:27;8.70;;;1.40;;
3757;SDS011;1894;51.038;13.692;2024-01-27T07:52:54;12.23;;;2.50;;
3757;SDS011;1894;51.038;13.692;2024-01-27T07:55:22;7.77;;;1.87;;
3757;SDS011;1894;51.038;13.692;2024-01-27T07:57:49;11.37;;;1.30;;
3757;SDS011;1894;51.038;13.692;2024-01-27T08:00:16;13.70;;;2.67;;
3757;SDS011;1894;51.038;13.692;2024-01-27T08:02:43;9.70;;;1.83;;
3757;SDS011;1894;51.038;13.692;2024-01-27T08:05:11;10.57;;;2.40;;
3757;SDS011;1894;51.038;13.692;2024-01-27T08:07:38;14.30;;;2.40;;
3757;SDS011;1894;51.038;13.692;2024-01-27T08:10:05;7.80;;;2.13;;
3757;SDS011;1894;51.038;13.692;2024-01-27T08:12:32;9.67;;;2.20;;
3757;SDS011;1894;51.038;13.692;2024-01-27T08:15:00;4.87;;;2.10;;
3757;SDS011;1894;51.038;13.692;2024-01-27T08:17:28;10.30;;;1.97;;
3757;SDS011;1894;51.038;13.692;2024-01-27T08:19:55;14.00;;;2.93;;
3757;SDS011;1894;51.038;13.692;2024-01-27T08:22:22;15.60;;;2.47;;
3757;SDS011;1894;51.038;13.692;2024-01-27T08:24:49;9.93;;;3.00;;
3757;SDS011;1894;51.038;13.692;2024-01-27T08:27:17;14.80;;;2.30;;
3757;SDS011;1894;51.038;13.692;2024-01-27T08:29:44;12.03;;;2.80;;
3757;SDS011;1894;51.038;13.692;2024-01-27T08:32:11;16.53;;;2.53;;
3757;SDS011;1894;51.038;13.692;2024-01-27T08:34:39;12.43;;;2.30;;
3757;SDS011;1894;51.038;13.692;2024-01-27T08:37:14;18.40;;;3.77;;
3757;SDS011;1894;51.038;13.692;2024-01-27T08:39:43;7.70;;;2.27;;
3757;SDS011;1894;51.038;13.692;2024-01-27T08:42:11;9.80;;;3.43;;
3757;SDS011;1894;51.038;13.692;2024-01-27T08:44:38;10.17;;;2.37;;
3757;SDS011;1894;51.038;13.692;2024-01-27T08:47:06;7.83;;;1.63;;
3757;SDS011;1894;51.038;13.692;2024-01-27T08:49:34;8.93;;;2.97;;
3757;SDS011;1894;51.038;13.692;2024-01-27T08:52:01;6.30;;;2.33;;
3757;SDS011;1894;51.038;13.692;2024-01-27T08:54:29;12.27;;;2.37;;
3757;SDS011;1894;51.038;13.692;2024-01-27T08:56:56;12.47;;;2.40;;
3757;SDS011;1894;51.038;13.692;2024-01-27T08:59:23;12.97;;;2.70;;
3757;SDS011;1894;51.038;13.692;2024-01-27T09:01:50;10.27;;;2.63;;
3757;SDS011;1894;51.038;13.692;2024-01-27T09:04:17;13.70;;;2.57;;
3757;SDS011;1894;51.038;13.692;2024-01-27T09:06:45;20.27;;;2.30;;
3757;SDS011;1894;51.038;13.692;2024-01-27T09:09:12;9.40;;;2.50;;
3757;SDS011;1894;51.038;13.692;2024-01-27T09:11:40;14.30;;;2.30;;
3757;SDS011;1894;51.038;13.692;2024-01-27T09:14:07;11.03;;;3.40;;
3757;SDS011;1894;51.038;13.692;2024-01-27T09:16:34;12.83;;;2.90;;
3757;SDS011;1894;51.038;13.692;2024-01-27T09:19:01;9.23;;;2.90;;
3757;SDS011;1894;51.038;13.692;2024-01-27T09:21:29;16.87;;;3.00;;
3757;SDS011;1894;51.038;13.692;2024-01-27T09:23:57;16.33;;;2.53;;
3757;SDS011;1894;51.038;13.692;2024-01-27T09:26:25;9.10;;;2.37;;
3757;SDS011;1894;51.038;13.692;2024-01-27T09:28:52;20.20;;;2.80;;
3757;SDS011;1894;51.038;13.692;2024-01-27T09:31:22;15.50;;;3.20;;
3757;SDS011;1894;51.038;13.692;2024-01-27T09:33:50;14.53;;;2.80;;
3757;SDS011;1894;51.038;13.692;2024-01-27T09:36:19;17.60;;;2.57;;
3757;SDS011;1894;51.038;13.692;2024-01-27T09:38:46;10.23;;;2.17;;
3757;SDS011;1894;51.038;13.692;2024-01-27T09:41:14;20.17;;;2.83;;
3757;SDS011;1894;51.038;13.692;2024-01-27T09:43:45;12.57;;;3.37;;
3757;SDS011;1894;51.038;13.692;2024-01-27T09:46:14;17.33;;;3.27;;
3757;SDS011;1894;51.038;13.692;2024-01-27T09:48:42;19.43;;;3.20;;
3757;SDS011;1894;51.038;13.692;2024-01-27T09:51:10;10.00;;;2.70;;
3757;SDS011;1894;51.038;13.692;2024-01-27T09:53:38;20.07;;;2.90;;
3757;SDS011;1894;51.038;13.692;2024-01-27T09:56:05;10.50;;;2.33;;
3757;SDS011;1894;51.038;13.692;2024-01-27T09:58:33;19.23;;;3.67;;
3757;SDS011;1894;51.038;13.692;2024-01-27T10:01:01;17.33;;;3.30;;
3757;SDS011;1894;51.038;13.692;2024-01-27T10:03:30;17.73;;;2.37;;
3757;SDS011;1894;51.038;13.692;2024-01-27T10:05:59;13.37;;;2.43;;
3757;SDS011;1894;51.038;13.692;2024-01-27T10:08:28;12.70;;;2.53;;
3757;SDS011;1894;51.038;13.692;2024-01-27T10:10:55;11.00;;;4.10;;
3757;SDS011;1894;51.038;13.692;2024-01-27T10:13:23;15.50;;;2.97;;
3757;SDS011;1894;51.038;13.692;2024-01-27T10:16:03;18.63;;;2.60;;
3757;SDS011;1894;51.038;13.692;2024-01-27T10:18:31;16.63;;;3.47;;
3757;SDS011;1894;51.038;13.692;2024-01-27T10:21:00;10.03;;;2.53;;
3757;SDS011;1894;51.038;13.692;2024-01-27T10:23:46;16.67;;;2.90;;
3757;SDS011;1894;51.038;13.692;2024-01-27T10:26:13;15.40;;;4.20;;
3757;SDS011;1894;51.038;13.692;2024-01-27T10:28:40;17.33;;;3.17;;
3757;SDS011;1894;51.038;13.692;2024-01-27T10:31:09;14.50;;;2.93;;
3757;SDS011;1894;51.038;13.692;2024-01-27T10:33:36;11.00;;;2.33;;
3757;SDS011;1894;51.038;13.692;2024-01-27T10:36:17;18.57;;;2.80;;
3757;SDS011;1894;51.038;13.692;2024-01-27T10:38:44;12.73;;;2.90;;
3757;SDS011;1894;51.038;13.692;2024-01-27T10:41:12;17.77;;;3.03;;
3757;SDS011;1894;51.038;13.692;2024-01-27T10:43:50;12.10;;;3.20;;
3757;SDS011;1894;51.038;13.692;2024-01-27T10:46:21;17.33;;;3.30;;
3757;SDS011;1894;51.038;13.692;2024-01-27T10:48:52;17.93;;;3.47;;
3757;SDS011;1894;51.038;13.692;2024-01-27T10:51:54;15.20;;;3.60;;
3757;SDS011;1894;51.038;13.692;2024-01-27T10:54:26;14.30;;;2.93;;
3757;SDS011;1894;51.038;13.692;2024-01-27T10:56:55;15.50;;;3.30;;
3757;SDS011;1894;51.038;13.692;2024-01-27T10:59:28;17.10;;;3.53;;
3757;SDS011;1894;51.038;13.692;2024-01-27T11:01:58;11.50;;;3.87;;
3757;SDS011;1894;51.038;13.692;2024-01-27T11:04:26;10.33;;;2.60;;
3757;SDS011;1894;51.038;13.692;2024-01-27T11:06:55;11.67;;;3.13;;
3757;SDS011;1894;51.038;13.692;2024-01-27T11:09:24;22.30;;;5.10;;
3757;SDS011;1894;51.038;13.692;2024-01-27T11:11:52;19.40;;;2.87;;
3757;SDS011;1894;51.038;13.692;2024-01-27T11:14:20;14.33;;;3.17;;
3757;SDS011;1894;51.038;13.692;2024-01-27T11:16:47;15.63;;;2.80;;
3757;SDS011;1894;51.038;13.692;2024-01-27T11:19:21;19.63;;;2.90;;
3757;SDS011;1894;51.038;13.692;2024-01-27T11:21:58;15.40;;;4.40;;
3757;SDS011;1894;51.038;13.692;2024-01-27T11:24:29;11.83;;;2.90;;
3757;SDS011;1894;51.038;13.692;2024-01-27T11:27:05;18.87;;;4.20;;
3757;SDS011;1894;51.038;13.692;2024-01-27T11:29:33;12.53;;;3.27;;
3757;SDS011;1894;51.038;13.692;2024-01-27T11:32:02;23.73;;;6.17;;
3757;SDS011;1894;51.038;13.692;2024-01-27T11:34:43;16.97;;;4.57;;
3757;SDS011;1894;51.038;13.692;2024-01-27T11:37:12;20.10;;;4.93;;
3757;SDS011;1894;51.038;13.692;2024-01-27T11:39:43;20.63;;;4.20;;
3757;SDS011;1894;51.038;13.692;2024-01-27T11:42:11;14.53;;;3.90;;
3757;SDS011;1894;51.038;13.692;2024-01-27T11:44:41;15.27;;;3.47;;
3757;SDS011;1894;51.038;13.692;2024-01-27T11:47:16;27.40;;;4.73;;
3757;SDS011;1894;51.038;13.692;2024-01-27T11:49:52;13.87;;;5.73;;
3757;SDS011;1894;51.038;13.692;2024-01-27T11:52:24;16.50;;;4.13;;
3757;SDS011;1894;51.038;13.692;2024-01-27T11:54:58;27.50;;;3.67;;
3757;SDS011;1894;51.038;13.692;2024-01-27T11:57:27;14.27;;;3.30;;
3757;SDS011;1894;51.038;13.692;2024-01-27T11:59:54;16.43;;;3.20;;
3757;SDS011;1894;51.038;13.692;2024-01-27T12:02:22;21.93;;;3.40;;
3757;SDS011;1894;51.038;13.692;2024-01-27T12:04:49;12.80;;;3.23;;
3757;SDS011;1894;51.038;13.692;2024-01-27T12:07:18;17.43;;;3.63;;
3757;SDS011;1894;51.038;13.692;2024-01-27T12:09:50;15.47;;;4.33;;
3757;SDS011;1894;51.038;13.692;2024-01-27T12:12:17;15.43;;;4.00;;
3757;SDS011;1894;51.038;13.692;2024-01-27T12:14:45;9.70;;;4.07;;
3757;SDS011;1894;51.038;13.692;2024-01-27T12:17:14;13.50;;;3.37;;
3757;SDS011;1894;51.038;13.692;2024-01-27T12:19:46;14.07;;;3.67;;
3757;SDS011;1894;51.038;13.692;2024-01-27T12:22:24;12.93;;;3.47;;
3757;SDS011;1894;51.038;13.692;2024-01-27T12:25:07;13.30;;;3.47;;
3757;SDS011;1894;51.038;13.692;2024-01-27T12:27:36;16.33;;;3.43;;
3757;SDS011;1894;51.038;13.692;2024-01-27T12:30:05;13.63;;;4.23;;
3757;SDS011;1894;51.038;13.692;2024-01-27T12:32:34;14.90;;;4.87;;
3757;SDS011;1894;51.038;13.692;2024-01-27T12:35:04;13.87;;;3.40;;
3757;SDS011;1894;51.038;13.692;2024-01-27T12:37:36;19.43;;;3.83;;
3757;SDS011;1894;51.038;13.692;2024-01-27T12:40:17;9.10;;;3.17;;
3757;SDS011;1894;51.038;13.692;2024-01-27T12:42:49;13.47;;;3.00;;
3757;SDS011;1894;51.038;13.692;2024-01-27T12:45:17;13.17;;;4.03;;
3757;SDS011;1894;51.038;13.692;2024-01-27T12:47:45;13.10;;;3.60;;
3757;SDS011;1894;51.038;13.692;2024-01-27T12:50:12;8.27;;;3.40;;
3757;SDS011;1894;51.038;13.692;2024-01-27T12:52:40;16.07;;;3.60;;
3757;SDS011;1894;51.038;13.692;2024-01-27T12:55:07;20.77;;;4.87;;
3757;SDS011;1894;51.038;13.692;2024-01-27T12:57:35;12.97;;;3.30;;
3757;SDS011;1894;51.038;13.692;2024-01-27T13:00:02;9.07;;;3.20;;
3757;SDS011;1894;51.038;13.692;2024-01-27T13:02:36;13.17;;;4.07;;
3757;SDS011;1894;51.038;13.692;2024-01-27T13:05:03;9.17;;;3.33;;
3757;SDS011;1894;51.038;13.692;2024-01-27T13:07:31;14.13;;;3.60;;
3757;SDS011;1894;51.038;13.692;2024-01-27T13:09:59;17.07;;;4.07;;
3757;SDS011;1894;51.038;13.692;2024-01-27T13:12:26;15.63;;;4.70;;
3757;SDS011;1894;51.038;13.692;2024-01-27T13:14:53;10.87;;;3.60;;
3757;SDS011;1894;51.038;13.692;2024-01-27T13:17:21;14.17;;;4.37;;
3757;SDS011;1894;51.038;13.692;2024-01-27T13:19:49;11.73;;;4.30;;
3757;SDS011;1894;51.038;13.692;2024-01-27T13:22:17;11.43;;;3.63;;
3757;SDS011;1894;51.038;13.692;2024-01-27T13:24:46;17.83;;;3.57;;
3757;SDS011;1894;51.038;13.692;2024-01-27T13:27:14;15.70;;;3.60;;
3757;SDS011;1894;51.038;13.692;2024-01-27T13:29:41;13.73;;;4.03;;
3757;SDS011;1894;51.038;13.692;2024-01-27T13:32:08;9.30;;;3.00;;
3757;SDS011;1894;51.038;13.692;2024-01-27T13:34:35;14.97;;;4.57;;
3757;SDS011;1894;51.038;13.692;2024-01-27T13:37:03;10.27;;;3.97;;
3757;SDS011;1894;51.038;13.692;2024-01-27T13:39:30;10.03;;;4.03;;
3757;SDS011;1894;51.038;13.692;2024-01-27T13:41:58;13.37;;;4.07;;
3757;SDS011;1894;51.038;13.692;2024-01-27T13:44:26;11.50;;;3.37;;
3757;SDS011;1894;51.038;13.692;2024-01-27T13:46:53;17.17;;;3.80;;
3757;SDS011;1894;51.038;13.692;2024-01-27T13:49:20;11.90;;;3.60;;
3757;SDS011;1894;51.038;13.692;2024-01-27T13:51:48;12.03;;;4.03;;
3757;SDS011;1894;51.038;13.692;2024-01-27T13:54:15;8.30;;;4.00;;
3757;SDS011;1894;51.038;13.692;2024-01-27T13:56:43;12.30;;;3.83;;
3757;SDS011;1894;51.038;13.692;2024-01-27T13:59:10;7.87;;;3.60;;
3757;SDS011;1894;51.038;13.692;2024-01-27T14:01:37;6.80;;;4.17;;
3757;SDS011;1894;51.038;13.692;2024-01-27T14:04:04;7.87;;;4.00;;
3757;SDS011;1894;51.038;13.692;2024-01-27T14:06:33;9.90;;;3.37;;
3757;SDS011;1894;51.038;13.692;2024-01-27T14:09:01;14.20;;;4.30;;
3757;SDS011;1894;51.038;13.692;2024-01-27T14:11:29;12.33;;;4.43;;
3757;SDS011;1894;51.038;13.692;2024-01-27T14:13:56;12.30;;;3.93;;
3757;SDS011;1894;51.038;13.692;2024-01-27T14:16:26;10.40;;;3.40;;
3757;SDS011;1894;51.038;13.692;2024-01-27T14:18:55;10.67;;;3.77;;
3757;SDS011;1894;51.038;13.692;2024-01-27T14:21:23;15.03;;;5.27;;
3757;SDS011;1894;51.038;13.692;2024-01-27T14:23:51;14.70;;;3.87;;
3757;SDS011;1894;51.038;13.692;2024-01-27T14:26:23;17.80;;;4.90;;
3757;SDS011;1894;51.038;13.692;2024-01-27T14:28:50;11.93;;;4.20;;
3757;SDS011;1894;51.038;13.692;2024-01-27T14:31:17;7.90;;;4.40;;
3757;SDS011;1894;51.038;13.692;2024-01-27T14:33:47;14.57;;;4.03;;
3757;SDS011;1894;51.038;13.692;2024-01-27T14:36:15;11.57;;;4.40;;
3757;SDS011;1894;51.038;13.692;2024-01-27T14:38:42;11.00;;;3.57;;
3757;SDS011;1894;51.038;13.692;2024-01-27T14:41:11;19.80;;;3.77;;
3757;SDS011;1894;51.038;13.692;2024-01-27T14:43:41;14.13;;;3.97;;
3757;SDS011;1894;51.038;13.692;2024-01-27T14:46:08;17.30;;;2.80;;
3757;SDS011;1894;51.038;13.692;2024-01-27T14:48:36;16.17;;;3.87;;
3757;SDS011;1894;51.038;13.692;2024-01-27T14:51:04;9.10;;;2.60;;
3757;SDS011;1894;51.038;13.692;2024-01-27T14:53:33;11.73;;;3.13;;
3757;SDS011;1894;51.038;13.692;2024-01-27T14:56:00;14.40;;;3.30;;
3757;SDS011;1894;51.038;13.692;2024-01-27T14:58:28;19.27;;;3.83;;